createdAt,value
2018-03-11T00:02:27.019Z,96783.75
2018-03-11T00:04:54.623Z,96783.70
2018-03-11T00:07:22.261Z,96781.17
2018-03-11T00:09:49.860Z,96777.40
2018-03-11T00:12:17.719Z,96780.72
2018-03-11T00:14:45.328Z,96780.77
2018-03-11T00:17:12.934Z,96777.34
2018-03-11T00:19:40.572Z,96772.10
2018-03-11T00:22:08.178Z,96771.38
2018-03-11T00:24:35.805Z,96773.19
2018-03-11T00:27:03.408Z,96771.78
2018-03-11T00:29:31.461Z,96766.05
2018-03-11T00:31:59.056Z,96752.22
2018-03-11T00:34:26.665Z,96759.32
2018-03-11T00:36:54.297Z,96750.78
2018-03-11T00:39:21.904Z,96756.08
2018-03-11T00:41:49.538Z,96755.49
2018-03-11T00:44:17.149Z,96755.75
2018-03-11T00:46:44.790Z,96751.83
2018-03-11T00:49:12.400Z,96749.96
2018-03-11T00:51:40.011Z,96743.36
2018-03-11T00:54:07.637Z,96739.69
2018-03-11T00:56:35.243Z,96738.96
2018-03-11T00:59:02.862Z,96732.18
2018-03-11T01:01:30.466Z,96734.19
2018-03-11T01:03:58.215Z,96738.80
2018-03-11T01:06:25.816Z,96729.48
2018-03-11T01:08:53.583Z,96728.19
2018-03-11T01:11:21.216Z,96727.45
2018-03-11T01:13:48.877Z,96724.86
2018-03-11T01:16:16.500Z,96734.68
2018-03-11T01:18:44.113Z,96726.22
2018-03-11T01:21:12.056Z,96729.02
2018-03-11T01:23:39.672Z,96725.30
2018-03-11T01:26:07.278Z,96716.66
2018-03-11T01:28:34.903Z,96713.58
2018-03-11T01:31:02.530Z,96712.28
2018-03-11T01:33:30.162Z,96709.32
2018-03-11T01:35:57.770Z,96711.16
2018-03-11T01:38:25.392Z,96710.55
2018-03-11T01:40:53.023Z,96708.90
2018-03-11T01:43:20.629Z,96707.88
2018-03-11T01:45:48.268Z,96707.48
2018-03-11T01:48:15.869Z,96701.81
2018-03-11T01:50:43.488Z,96700.37
2018-03-11T01:53:11.096Z,96692.42
2018-03-11T01:55:39.019Z,96688.11
2018-03-11T01:58:06.630Z,96683.50
2018-03-11T02:00:34.257Z,96675.02
2018-03-11T02:03:01.878Z,96669.36
2018-03-11T02:05:29.484Z,96668.02
2018-03-11T02:07:57.140Z,96664.15
2018-03-11T02:10:24.747Z,96659.07
2018-03-11T02:12:52.696Z,96655.37
2018-03-11T02:15:20.284Z,96659.47
2018-03-11T02:17:47.882Z,96657.89
2018-03-11T02:20:15.493Z,96657.33
2018-03-11T02:22:43.091Z,96651.52
2018-03-11T02:25:10.733Z,96646.61
2018-03-11T02:27:38.328Z,96649.23
2018-03-11T02:30:06.145Z,96649.52
2018-03-11T02:32:33.756Z,96634.00
2018-03-11T02:35:01.369Z,96629.67
2018-03-11T02:37:29.007Z,96627.47
2018-03-11T02:39:56.616Z,96625.20
2018-03-11T02:42:24.239Z,96630.34
2018-03-11T02:44:51.850Z,96627.14
2018-03-11T02:47:19.480Z,96631.97
2018-03-11T02:49:47.145Z,96642.03
2018-03-11T02:52:14.737Z,96641.11
2018-03-11T02:54:42.360Z,96634.45
2018-03-11T02:57:09.959Z,96631.67
2018-03-11T02:59:37.582Z,96626.36
2018-03-11T03:02:05.307Z,96614.67
2018-03-11T03:04:32.958Z,96618.80
2018-03-11T03:07:00.576Z,96614.64
2018-03-11T03:09:28.180Z,96612.77
2018-03-11T03:11:55.835Z,96610.17
2018-03-11T03:14:23.444Z,96612.08
2018-03-11T03:16:51.068Z,96600.23
2018-03-11T03:19:18.663Z,96597.73
2018-03-11T03:21:46.291Z,96602.37
2018-03-11T03:24:13.888Z,96598.84
2018-03-11T03:26:41.507Z,96595.44
2018-03-11T03:29:09.130Z,96586.50
2018-03-11T03:31:36.725Z,96584.88
2018-03-11T03:34:04.395Z,96595.36
2018-03-11T03:36:32.007Z,96592.42
2018-03-11T03:38:59.649Z,96588.06
2018-03-11T03:41:27.245Z,96586.87
2018-03-11T03:43:54.849Z,96585.61
2018-03-11T03:46:22.468Z,96586.55
2018-03-11T03:48:50.059Z,96586.65
2018-03-11T03:51:17.680Z,96583.50
2018-03-11T03:53:45.271Z,96577.75
2018-03-11T03:56:12.860Z,96573.63
2018-03-11T03:58:40.503Z,96573.00
2018-03-11T04:01:08.099Z,96567.14
2018-03-11T04:03:35.828Z,96575.11
2018-03-11T04:06:03.422Z,96570.91
2018-03-11T04:08:31.038Z,96565.70
2018-03-11T04:10:58.660Z,96564.70
2018-03-11T04:13:26.257Z,96552.52
2018-03-11T04:15:54.108Z,96550.88
2018-03-11T04:18:21.708Z,96532.31
2018-03-11T04:20:49.307Z,96530.06
2018-03-11T04:23:16.925Z,96536.83
2018-03-11T04:25:44.621Z,96535.66
2018-03-11T04:28:12.232Z,96546.55
2018-03-11T04:30:39.834Z,96546.25
2018-03-11T04:33:07.448Z,96556.33
2018-03-11T04:35:35.044Z,96561.81
2018-03-11T04:38:02.660Z,96557.71
2018-03-11T04:40:30.257Z,96551.64
2018-03-11T04:42:57.896Z,96551.22
2018-03-11T04:45:25.497Z,96544.92
2018-03-11T04:47:53.088Z,96541.66
2018-03-11T04:50:20.710Z,96544.12
2018-03-11T04:52:48.304Z,96549.08
2018-03-11T04:55:15.927Z,96541.66
2018-03-11T04:57:43.521Z,96551.55
2018-03-11T05:00:11.188Z,96549.02
2018-03-11T05:02:38.786Z,96552.19
2018-03-11T05:05:06.382Z,96558.66
2018-03-11T05:07:34.000Z,96550.39
2018-03-11T05:10:01.596Z,96539.39
2018-03-11T05:12:29.211Z,96521.72
2018-03-11T05:14:56.810Z,96510.73
2018-03-11T05:17:24.575Z,96504.33
2018-03-11T05:19:52.178Z,96494.86
2018-03-11T05:22:19.765Z,96494.21
2018-03-11T05:24:47.390Z,96492.22
2018-03-11T05:27:14.985Z,96487.83
2018-03-11T05:29:42.589Z,96481.82
2018-03-11T05:32:10.204Z,96483.80
2018-03-11T05:34:38.105Z,96486.30
2018-03-11T05:37:05.693Z,96484.56
2018-03-11T05:39:33.284Z,96492.37
2018-03-11T05:42:00.904Z,96502.95
2018-03-11T05:44:28.563Z,96507.23
2018-03-11T05:46:56.144Z,96510.48
2018-03-11T05:49:23.734Z,96502.09
2018-03-11T05:51:51.529Z,96503.25
2018-03-11T05:54:19.127Z,96505.41
2018-03-11T05:56:46.716Z,96505.66
2018-03-11T05:59:14.332Z,96505.41
2018-03-11T06:01:41.936Z,96498.28
2018-03-11T06:04:09.551Z,96492.51
2018-03-11T06:06:37.142Z,96496.30
2018-03-11T06:09:04.816Z,96496.52
2018-03-11T06:11:32.408Z,96500.38
2018-03-11T06:13:59.995Z,96511.20
2018-03-11T06:16:27.614Z,96515.86
2018-03-11T06:18:55.207Z,96508.68
2018-03-11T06:21:22.815Z,96489.77
2018-03-11T06:23:50.413Z,96479.37
2018-03-11T06:26:18.042Z,96493.53
2018-03-11T06:28:45.636Z,96485.94
2018-03-11T06:31:13.233Z,96471.11
2018-03-11T06:33:40.856Z,96472.84
2018-03-11T06:36:08.453Z,96460.91
2018-03-11T06:38:36.068Z,96442.41
2018-03-11T06:41:03.656Z,96434.52
2018-03-11T06:43:31.676Z,96425.23
2018-03-11T06:45:59.280Z,96423.22
2018-03-11T06:48:26.875Z,96421.80
2018-03-11T06:50:54.487Z,96418.67
2018-03-11T06:53:22.074Z,96416.50
2018-03-11T06:55:49.689Z,96417.67
2018-03-11T06:58:17.296Z,96410.00
2018-03-11T07:00:45.121Z,96407.14
2018-03-11T07:03:12.712Z,96413.29
2018-03-11T07:05:40.308Z,96416.36
2018-03-11T07:08:07.920Z,96413.67
2018-03-11T07:10:35.511Z,96404.94
2018-03-11T07:13:03.136Z,96403.14
2018-03-11T07:15:30.725Z,96403.08
2018-03-11T07:17:58.519Z,96395.60
2018-03-11T07:20:26.121Z,96394.85
2018-03-11T07:22:53.724Z,96386.59
2018-03-11T07:25:21.346Z,96376.64
2018-03-11T07:27:48.960Z,96369.84
2018-03-11T07:30:16.597Z,96367.63
2018-03-11T07:32:44.201Z,96375.73
2018-03-11T07:35:12.018Z,96389.61
2018-03-11T07:37:39.612Z,96405.05
2018-03-11T07:40:07.203Z,96413.49
2018-03-11T07:42:34.860Z,96407.05
2018-03-11T07:45:02.456Z,96393.95
2018-03-11T07:47:30.318Z,96378.91
2018-03-11T07:49:57.915Z,96357.23
2018-03-11T07:52:25.516Z,96340.45
2018-03-11T07:54:53.136Z,96328.27
2018-03-11T07:57:20.743Z,96332.54
2018-03-11T07:59:48.371Z,96348.83
2018-03-11T08:02:15.966Z,96362.88
2018-03-11T08:04:43.860Z,96363.23
2018-03-11T08:07:11.452Z,96372.86
2018-03-11T08:09:39.048Z,96382.91
2018-03-11T08:12:06.660Z,96407.28
2018-03-11T08:14:34.315Z,96424.91
2018-03-11T08:17:01.897Z,96432.08
2018-03-11T08:19:29.488Z,96433.08
2018-03-11T08:21:57.636Z,96439.35
2018-03-11T08:24:25.236Z,96459.03
2018-03-11T08:26:52.826Z,96459.80
2018-03-11T08:29:20.436Z,96457.50
2018-03-11T08:31:48.036Z,96448.44
2018-03-11T08:36:42.562Z,96443.72
2018-03-11T08:39:10.631Z,96431.47
2018-03-11T08:41:38.229Z,96424.92
2018-03-11T08:44:05.808Z,96435.33
2018-03-11T08:46:33.433Z,96436.73
2018-03-11T08:49:01.124Z,96423.09
2018-03-11T08:51:28.748Z,96419.51
2018-03-11T08:53:56.396Z,96417.88
2018-03-11T08:56:24.053Z,96416.28
2018-03-11T08:58:51.648Z,96421.65
2018-03-11T09:01:19.257Z,96409.20
2018-03-11T09:03:46.864Z,96399.08
2018-03-11T09:06:14.540Z,96402.42
2018-03-11T09:08:42.146Z,96399.05
2018-03-11T09:11:09.770Z,96385.48
2018-03-11T09:13:37.394Z,96381.23
2018-03-11T09:16:04.989Z,96377.16
2018-03-11T09:18:32.585Z,96367.47
2018-03-11T09:21:00.192Z,96352.63
2018-03-11T09:23:27.784Z,96352.13
2018-03-11T09:25:55.396Z,96357.19
2018-03-11T09:28:22.983Z,96350.09
2018-03-11T09:30:50.819Z,96344.13
2018-03-11T09:33:18.443Z,96336.59
2018-03-11T09:35:46.031Z,96332.22
2018-03-11T09:38:13.687Z,96324.28
2018-03-11T09:40:41.417Z,96309.89
2018-03-11T09:43:09.025Z,96301.42
2018-03-11T09:45:36.611Z,96306.70
2018-03-11T09:48:04.452Z,96315.78
2018-03-11T09:50:32.050Z,96302.67
2018-03-11T09:52:59.634Z,96287.80
2018-03-11T09:55:27.240Z,96281.77
2018-03-11T09:57:54.835Z,96271.05
2018-03-11T10:00:22.464Z,96267.31
2018-03-11T10:02:50.049Z,96274.23
2018-03-11T10:05:17.639Z,96260.07
2018-03-11T10:07:45.267Z,96262.86
2018-03-11T10:10:12.884Z,96266.28
2018-03-11T10:12:40.544Z,96276.67
2018-03-11T10:15:08.231Z,96284.09
2018-03-11T10:17:35.821Z,96288.72
2018-03-11T10:20:03.475Z,96291.61
2018-03-11T10:22:31.173Z,96283.08
2018-03-11T10:24:58.785Z,96283.90
2018-03-11T10:27:26.397Z,96291.37
2018-03-11T10:29:54.012Z,96296.79
2018-03-11T10:32:21.617Z,96297.39
2018-03-11T10:34:49.208Z,96286.63
2018-03-11T10:37:16.819Z,96283.28
2018-03-11T10:39:44.420Z,96286.56
2018-03-11T10:42:12.028Z,96279.14
2018-03-11T10:44:39.623Z,96270.19
2018-03-11T10:47:07.396Z,96275.56
2018-03-11T10:49:34.985Z,96277.91
2018-03-11T10:52:02.583Z,96274.63
2018-03-11T10:54:30.193Z,96259.99
2018-03-11T10:56:57.803Z,96255.62
2018-03-11T10:59:25.423Z,96244.36
2018-03-11T11:01:58.556Z,96234.17
2018-03-11T11:07:28.686Z,96237.51
2018-03-11T11:09:56.288Z,96228.94
2018-03-11T11:12:23.871Z,96222.03
2018-03-11T11:14:51.481Z,96219.36
2018-03-11T11:17:19.087Z,96211.22
2018-03-11T11:19:46.709Z,96209.86
2018-03-11T11:22:14.320Z,96203.58
2018-03-11T11:24:41.904Z,96202.86
2018-03-11T11:27:09.531Z,96201.03
2018-03-11T11:29:37.115Z,96197.48
2018-03-11T11:32:04.696Z,96186.95
2018-03-11T11:34:32.304Z,96184.39
2018-03-11T11:36:59.890Z,96181.86
2018-03-11T11:39:27.501Z,96180.56
2018-03-11T11:41:55.108Z,96166.52
2018-03-11T11:44:23.111Z,96173.75
2018-03-11T11:46:50.700Z,96175.19
2018-03-11T11:49:18.292Z,96163.00
2018-03-11T11:51:45.895Z,96162.27
2018-03-11T11:54:13.496Z,96159.48
2018-03-11T11:56:42.005Z,96156.77
2018-03-11T11:59:09.604Z,96146.97
2018-03-11T12:01:37.234Z,96139.93
2018-03-11T12:04:04.840Z,96149.11
2018-03-11T12:06:32.449Z,96139.97
2018-03-11T12:09:00.060Z,96136.94
2018-03-11T12:11:27.648Z,96136.08
2018-03-11T12:13:55.260Z,96134.05
2018-03-11T12:16:24.573Z,96137.98
2018-03-11T12:18:52.212Z,96138.57
2018-03-11T12:21:19.796Z,96129.67
2018-03-11T12:23:47.388Z,96130.33
2018-03-11T12:26:15.011Z,96132.09
2018-03-11T12:28:42.607Z,96123.58
2018-03-11T12:31:10.239Z,96128.89
2018-03-11T12:33:37.833Z,96128.35
2018-03-11T12:36:05.647Z,96131.55
2018-03-11T12:38:33.238Z,96127.47
2018-03-11T12:41:00.878Z,96127.38
2018-03-11T12:43:28.464Z,96122.39
2018-03-11T12:45:56.052Z,96106.58
2018-03-11T12:48:23.891Z,96101.42
2018-03-11T12:50:51.479Z,96090.07
2018-03-11T12:53:19.432Z,96086.13
2018-03-11T12:55:47.024Z,96088.44
2018-03-11T12:58:14.613Z,96081.52
2018-03-11T13:00:42.222Z,96079.93
2018-03-11T13:03:09.830Z,96078.19
2018-03-11T13:05:37.443Z,96077.34
2018-03-11T13:08:05.052Z,96070.48
2018-03-11T13:10:32.904Z,96073.34
2018-03-11T13:13:00.495Z,96061.36
2018-03-11T13:15:28.097Z,96069.80
2018-03-11T13:17:55.709Z,96069.98
2018-03-11T13:20:35.103Z,96079.91
2018-03-11T13:23:02.733Z,96076.23
2018-03-11T13:25:30.336Z,96078.34
2018-03-11T13:31:06.025Z,96069.03
2018-03-11T13:33:45.404Z,96080.89
2018-03-11T13:36:13.003Z,96074.47
2018-03-11T13:38:52.531Z,96070.77
2018-03-11T13:41:20.132Z,96063.89
2018-03-11T13:43:47.726Z,96065.59
2018-03-11T13:46:27.104Z,96062.86
2018-03-11T13:48:54.704Z,96051.95
2018-03-11T13:51:33.987Z,96046.93
2018-03-11T13:54:01.597Z,96039.75
2018-03-11T13:56:29.225Z,96034.88
2018-03-11T13:58:56.828Z,96029.19
2018-03-11T14:01:24.443Z,96034.92
2018-03-11T14:03:52.034Z,96030.70
2018-03-11T14:06:19.639Z,96023.64
2018-03-11T14:08:47.232Z,96013.22
2018-03-11T14:11:14.870Z,96015.30
2018-03-11T14:13:42.555Z,96014.57
2018-03-11T14:16:10.317Z,96008.83
2018-03-11T14:18:37.926Z,95996.42
2018-03-11T14:21:09.895Z,95995.12
2018-03-11T14:23:42.800Z,95997.88
2018-03-11T14:26:21.154Z,95991.91
2018-03-11T14:28:49.483Z,95991.09
2018-03-11T14:31:17.084Z,95981.00
2018-03-11T14:33:44.667Z,95989.41
2018-03-11T14:36:12.288Z,95979.95
2018-03-11T14:38:39.885Z,95983.59
2018-03-11T14:41:07.516Z,95970.21
2018-03-11T14:43:35.113Z,95969.56
2018-03-11T14:46:03.015Z,95971.75
2018-03-11T14:48:30.599Z,95972.58
2018-03-11T14:50:58.202Z,95972.41
2018-03-11T14:53:25.824Z,95975.75
2018-03-11T14:55:53.412Z,95968.59
2018-03-11T14:58:21.038Z,95963.56
2018-03-11T15:00:48.795Z,95957.16
2018-03-11T15:03:16.436Z,95956.39
2018-03-11T15:05:44.036Z,95952.91
2018-03-11T15:08:15.675Z,95949.75
2018-03-11T15:10:43.290Z,95945.09
2018-03-11T15:13:10.894Z,95948.81
2018-03-11T15:15:38.510Z,95948.84
2018-03-11T15:18:06.118Z,95950.16
2018-03-11T15:20:33.933Z,95953.52
2018-03-11T15:23:01.520Z,95946.33
2018-03-11T15:25:29.108Z,95947.95
2018-03-11T15:27:56.747Z,95948.50
2018-03-11T15:30:24.381Z,95950.84
2018-03-11T15:32:52.141Z,95953.37
2018-03-11T15:35:19.745Z,95948.11
2018-03-11T15:37:47.526Z,95945.21
2018-03-11T15:40:15.148Z,95948.10
2018-03-11T15:42:42.754Z,95946.74
2018-03-11T15:45:10.392Z,95959.39
2018-03-11T15:47:37.982Z,95953.92
2018-03-11T15:50:05.605Z,95947.13
2018-03-11T15:52:33.209Z,95952.59
2018-03-11T15:55:00.955Z,95949.83
2018-03-11T15:57:28.550Z,95948.84
2018-03-11T15:59:56.161Z,95957.39
2018-03-11T16:02:23.789Z,95957.78
2018-03-11T16:04:51.400Z,95952.12
2018-03-11T16:07:19.050Z,95952.31
2018-03-11T16:09:46.657Z,95955.82
2018-03-11T16:12:14.268Z,95949.57
2018-03-11T16:14:41.877Z,95953.48
2018-03-11T16:17:09.492Z,95958.33
2018-03-11T16:19:37.112Z,95953.99
2018-03-11T16:22:04.704Z,95956.10
2018-03-11T16:24:39.616Z,95951.63
2018-03-11T16:27:00.161Z,95953.27
2018-03-11T16:29:27.812Z,95952.22
2018-03-11T16:31:55.440Z,95943.42
2018-03-11T16:34:23.161Z,95938.73
2018-03-11T16:36:50.855Z,95937.37
2018-03-11T16:39:18.445Z,95941.05
2018-03-11T16:41:46.080Z,95938.81
2018-03-11T16:44:13.682Z,95943.47
2018-03-11T16:46:41.280Z,95935.66
2018-03-11T16:49:08.891Z,95932.13
2018-03-11T16:51:36.487Z,95930.58
2018-03-11T16:54:04.179Z,95933.84
2018-03-11T16:56:31.773Z,95934.80
2018-03-11T16:58:59.836Z,95932.47
2018-03-11T17:01:27.425Z,95939.81
2018-03-11T17:03:55.013Z,95946.41
2018-03-11T17:06:22.621Z,95946.84
2018-03-11T17:08:50.251Z,95954.25
2018-03-11T17:11:17.876Z,95952.95
2018-03-11T17:13:45.517Z,95956.20
2018-03-11T17:16:13.384Z,95954.52
2018-03-11T17:18:41.057Z,95960.53
2018-03-11T17:21:08.646Z,95958.72
2018-03-11T17:23:36.261Z,95953.94
2018-03-11T17:26:03.890Z,95958.72
2018-03-11T17:28:31.512Z,95962.70
2018-03-11T17:30:59.126Z,95964.41
2018-03-11T17:33:26.836Z,95964.80
2018-03-11T17:35:54.446Z,95956.69
2018-03-11T17:38:22.043Z,95955.47
2018-03-11T17:40:49.652Z,95953.97
2018-03-11T17:43:17.263Z,95949.61
2018-03-11T17:45:44.888Z,95951.93
2018-03-11T17:48:12.483Z,95954.89
2018-03-11T17:50:40.409Z,95946.56
2018-03-11T17:53:08.052Z,95943.98
2018-03-11T17:55:36.169Z,95946.89
2018-03-11T17:58:03.771Z,95940.30
2018-03-11T18:00:31.371Z,95934.33
2018-03-11T18:02:59.020Z,95930.34
2018-03-11T18:05:26.620Z,95929.00
2018-03-11T18:07:54.275Z,95922.59
2018-03-11T18:10:21.863Z,95930.06
2018-03-11T18:12:49.818Z,95926.72
2018-03-11T18:15:17.445Z,95936.53
2018-03-11T18:17:45.354Z,95935.12
2018-03-11T18:20:12.972Z,95937.06
2018-03-11T18:22:40.564Z,95936.61
2018-03-11T18:25:08.189Z,95939.26
2018-03-11T18:27:35.791Z,95940.59
2018-03-11T18:30:03.394Z,95943.89
2018-03-11T18:32:31.004Z,95934.48
2018-03-11T18:34:58.587Z,95934.05
2018-03-11T18:37:26.231Z,95931.75
2018-03-11T18:39:53.822Z,95931.27
2018-03-11T18:42:21.451Z,95934.56
2018-03-11T18:44:49.043Z,95930.58
2018-03-11T18:47:16.645Z,95930.28
2018-03-11T18:49:44.263Z,95927.92
2018-03-11T18:52:11.866Z,95928.56
2018-03-11T18:54:39.508Z,95928.58
2018-03-11T18:57:07.115Z,95928.64
2018-03-11T18:59:34.754Z,95934.00
2018-03-11T19:02:02.363Z,95926.84
2018-03-11T19:04:29.956Z,95921.86
2018-03-11T19:06:57.577Z,95920.26
2018-03-11T19:09:25.167Z,95920.80
2018-03-11T19:11:52.781Z,95916.30
2018-03-11T19:14:20.392Z,95920.41
2018-03-11T19:16:47.987Z,95918.45
2018-03-11T19:19:15.611Z,95917.67
2018-03-11T19:21:43.211Z,95916.16
2018-03-11T19:24:10.824Z,95907.63
2018-03-11T19:26:38.421Z,95907.98
2018-03-11T19:29:06.047Z,95901.95
2018-03-11T19:31:33.720Z,95905.12
2018-03-11T19:34:01.349Z,95905.68
2018-03-11T19:36:28.944Z,95907.05
2018-03-11T19:38:56.733Z,95905.25
2018-03-11T19:41:24.354Z,95906.48
2018-03-11T19:43:51.947Z,95913.00
2018-03-11T19:46:19.557Z,95909.02
2018-03-11T19:48:47.261Z,95906.02
2018-03-11T19:51:15.173Z,95903.12
2018-03-11T19:53:42.769Z,95900.53
2018-03-11T19:56:10.429Z,95897.70
2018-03-11T19:58:38.037Z,95897.09
2018-03-11T20:01:05.656Z,95894.92
2018-03-11T20:03:33.278Z,95898.58
2018-03-11T20:06:00.888Z,95897.62
2018-03-11T20:08:28.511Z,95895.66
2018-03-11T20:10:56.108Z,95894.51
2018-03-11T20:13:23.838Z,95900.30
2018-03-11T20:15:51.438Z,95900.37
2018-03-11T20:18:19.039Z,95903.12
2018-03-11T20:20:46.653Z,95902.27
2018-03-11T20:23:14.272Z,95905.94
2018-03-11T20:25:41.889Z,95898.00
2018-03-11T20:28:09.482Z,95890.64
2018-03-11T20:30:37.175Z,95894.09
2018-03-11T20:33:04.930Z,95889.62
2018-03-11T20:35:32.527Z,95884.94
2018-03-11T20:38:00.156Z,95879.98
2018-03-11T20:40:27.786Z,95875.84
2018-03-11T20:42:55.395Z,95879.88
2018-03-11T20:45:23.022Z,95880.58
2018-03-11T20:47:51.184Z,95881.83
2018-03-11T20:50:18.803Z,95881.24
2018-03-11T20:52:46.434Z,95877.84
2018-03-11T20:55:14.371Z,95869.70
2018-03-11T20:57:41.968Z,95873.55
2018-03-11T21:00:09.564Z,95869.06
2018-03-11T21:02:37.183Z,95866.99
2018-03-11T21:05:04.787Z,95861.49
2018-03-11T21:07:32.423Z,95854.42
2018-03-11T21:10:00.039Z,95859.03
2018-03-11T21:12:27.703Z,95856.44
2018-03-11T21:14:55.299Z,95850.27
2018-03-11T21:17:22.894Z,95853.84
2018-03-11T21:19:50.520Z,95848.82
2018-03-11T21:22:18.132Z,95847.00
2018-03-11T21:24:45.756Z,95849.31
2018-03-11T21:27:13.470Z,95847.98
2018-03-11T21:29:41.224Z,95844.70
2018-03-11T21:32:08.817Z,95838.67
2018-03-11T21:34:36.429Z,95841.36
2018-03-11T21:37:04.633Z,95835.02
2018-03-11T21:39:32.236Z,95835.25
2018-03-11T21:41:59.864Z,95834.03
2018-03-11T21:44:27.467Z,95828.73
2018-03-11T21:46:55.135Z,95829.73
2018-03-11T21:49:22.745Z,95829.05
2018-03-11T21:51:50.342Z,95830.51
2018-03-11T21:54:17.959Z,95832.84
2018-03-11T21:56:45.562Z,95826.97
2018-03-11T21:59:13.184Z,95817.75
2018-03-11T22:01:40.784Z,95813.27
2018-03-11T22:04:08.608Z,95812.19
2018-03-11T22:06:36.206Z,95811.25
2018-03-11T22:09:03.815Z,95817.83
2018-03-11T22:11:31.425Z,95814.60
2018-03-11T22:13:59.036Z,95815.27
2018-03-11T22:16:26.657Z,95815.27
2018-03-11T22:18:54.248Z,95810.11
2018-03-11T22:21:22.151Z,95814.81
2018-03-11T22:23:49.744Z,95808.34
2018-03-11T22:26:18.453Z,95808.55
2018-03-11T22:28:49.595Z,95808.52
2018-03-11T22:31:17.185Z,95815.52
2018-03-11T22:33:44.798Z,95808.22
2018-03-11T22:36:12.399Z,95805.75
2018-03-11T22:38:40.180Z,95806.33
2018-03-11T22:41:07.785Z,95808.45
2018-03-11T22:43:35.378Z,95813.70
2018-03-11T22:46:02.998Z,95802.23
2018-03-11T22:48:30.580Z,95791.42
2018-03-11T22:50:58.206Z,95791.40
2018-03-11T22:53:25.880Z,95783.42
2018-03-11T22:55:53.458Z,95789.48
2018-03-11T22:58:21.061Z,95789.22
2018-03-11T23:00:48.802Z,95781.93
2018-03-11T23:03:16.421Z,95785.28
2018-03-11T23:05:44.020Z,95780.46
2018-03-11T23:08:11.642Z,95776.61
2018-03-11T23:10:39.241Z,95780.23
2018-03-11T23:13:06.896Z,95785.84
2018-03-11T23:15:34.498Z,95781.41
2018-03-11T23:18:02.087Z,95763.72
2018-03-11T23:20:29.706Z,95771.00
2018-03-11T23:22:57.306Z,95768.55
2018-03-11T23:25:24.936Z,95769.42
2018-03-11T23:27:52.524Z,95771.22
2018-03-11T23:30:20.464Z,95772.04
2018-03-11T23:32:48.052Z,95769.55
2018-03-11T23:35:15.655Z,95765.30
2018-03-11T23:37:43.269Z,95763.85
2018-03-11T23:40:10.873Z,95762.87
2018-03-11T23:42:38.505Z,95758.20
2018-03-11T23:45:06.101Z,95756.28
2018-03-11T23:47:34.107Z,95761.00
2018-03-11T23:50:01.713Z,95759.05
2018-03-11T23:52:29.299Z,95762.42
2018-03-11T23:54:56.939Z,95762.94
2018-03-11T23:57:24.527Z,95765.38
2018-03-11T23:59:52.143Z,95768.65
